Aviation Digital Data Service (ADDS)

Output produced by METARs form (0904 UTC 30 July 2014)
found at http://www.aviationweather.gov/adds/metars/
 
METAR text: EPBY 300900Z 11007KT 070V160 CAVOK 28/16 Q1007
Conditions at: EPBY (BYDGOSZDZ , PL) observed 0900 UTC 30 July 2014
Temperature: 28.0°C (82°F)
Dewpoint: 16.0°C (61°F) [RH = 48%]
Pressure (altimeter): 29.73 inches Hg (1007.0 mb)
Winds: from the ESE (110 degrees) at 8 MPH (7 knots; 3.6 m/s)
Visibility: 6 or more miles (10+ km)
Ceiling: ceiling and visibility are OK
Clouds: unknown
Weather: no significant weather observed at this time

Forecast for: EPBY (BYDGOSZDZ , PL)
Text: TAF EPBY 300830Z 3009/3018 12007KT CAVOK
Forecast period: 0900 to 1800 UTC 30 July 2014
Forecast type: FROM: standard forecast or significant change
Winds: from the ESE (120 degrees) at 8 MPH (7 knots; 3.6 m/s)
Visibility: 6 or more miles (10+ km)
Clouds: not forecast
Weather: NSW  (no significant weather)
Text: PROB40
Forecast period: 1200 to 1800 UTC 30 July 2014
Forecast type: TEMPORARY: The following changes expected for less than half the time period
Winds: variable direction winds at 18 MPH (16 knots; 8.3 m/s)
gusting to 34 MPH (30 knots; 15.6 m/s)
Visibility: 2.49 miles (4.01 km)
Ceiling: 3000 feet AGL
Clouds: broken clouds at 3000 feet AGL
Weather: TSRA  (rain associated with thunderstorm(s))